createdAt,value
2023-10-20T00:02:45.000Z,6.2
2023-10-20T00:07:40.000Z,5.7
2023-10-20T00:12:34.000Z,5.5
2023-10-20T00:17:28.000Z,5.8
2023-10-20T00:22:22.000Z,5.7
2023-10-20T00:27:16.000Z,5.1
2023-10-20T00:32:11.000Z,4.5
2023-10-20T00:37:05.000Z,4.3
2023-10-20T00:41:59.000Z,3.7
2023-10-20T00:46:54.000Z,3.5
2023-10-20T00:51:48.000Z,3.5
2023-10-20T00:56:43.000Z,3.5
2023-10-20T01:01:36.000Z,3.5
2023-10-20T01:06:31.000Z,3.3
2023-10-20T01:11:25.000Z,3.6
2023-10-20T01:16:19.000Z,3.7
2023-10-20T01:21:13.000Z,4.2
2023-10-20T01:26:07.000Z,3.5
2023-10-20T01:31:01.000Z,3.8
2023-10-20T01:35:55.000Z,3.7
2023-10-20T01:40:49.000Z,4.3
2023-10-20T01:45:44.000Z,4.6
2023-10-20T01:50:37.000Z,4.9
2023-10-20T01:55:30.000Z,5.3
2023-10-20T02:00:25.000Z,6.6
2023-10-20T02:05:19.000Z,6.3
2023-10-20T02:10:12.000Z,7.4
2023-10-20T02:15:07.000Z,7.4
2023-10-20T02:20:01.000Z,8.3
2023-10-20T02:24:55.000Z,8.7
2023-10-20T02:29:50.000Z,8.5
2023-10-20T02:34:44.000Z,9.3
2023-10-20T02:39:38.000Z,9.4
2023-10-20T02:44:32.000Z,9.4
2023-10-20T02:49:27.000Z,9.3
2023-10-20T02:54:21.000Z,8.6
2023-10-20T02:59:16.000Z,8.4
2023-10-20T03:04:10.000Z,7.8
2023-10-20T03:09:03.000Z,7.2
2023-10-20T03:13:58.000Z,6.9
2023-10-20T03:18:53.000Z,6.4
2023-10-20T03:23:47.000Z,6.1
2023-10-20T03:28:41.000Z,6.2
2023-10-20T03:33:36.000Z,5.7
2023-10-20T03:38:30.000Z,5.3
2023-10-20T03:43:25.000Z,4.4
2023-10-20T03:48:19.000Z,4.3
2023-10-20T03:53:13.000Z,4.3
2023-10-20T03:58:08.000Z,4.2
2023-10-20T04:03:02.000Z,4.4
2023-10-20T04:07:57.000Z,4.5
2023-10-20T04:12:51.000Z,3.9
2023-10-20T04:17:46.000Z,4.4
2023-10-20T04:22:40.000Z,4.6
2023-10-20T04:27:34.000Z,5.2
2023-10-20T04:32:29.000Z,5.2
2023-10-20T04:37:24.000Z,5.3
2023-10-20T04:42:19.000Z,5.3
2023-10-20T04:47:13.000Z,5.4
2023-10-20T04:52:06.000Z,6.8
2023-10-20T04:57:01.000Z,5.9
2023-10-20T05:01:55.000Z,6.9
2023-10-20T05:06:47.000Z,7.1
2023-10-20T05:11:42.000Z,7.6
2023-10-20T05:16:37.000Z,7.4
2023-10-20T05:21:32.000Z,8
2023-10-20T05:26:27.000Z,7.6
2023-10-20T05:31:21.000Z,7.1
2023-10-20T05:36:16.000Z,6.7
2023-10-20T05:41:10.000Z,6.2
2023-10-20T05:46:05.000Z,6.4
2023-10-20T05:50:58.000Z,7.4
2023-10-20T05:55:53.000Z,8.1
2023-10-20T06:00:48.000Z,8.3
2023-10-20T06:05:44.000Z,9.3
2023-10-20T06:10:38.000Z,9.7
2023-10-20T06:15:32.000Z,10
2023-10-20T06:20:27.000Z,10.1
2023-10-20T06:25:22.000Z,10.1
2023-10-20T06:30:16.000Z,10.3
2023-10-20T06:35:10.000Z,10.8
2023-10-20T06:40:06.000Z,10.5
2023-10-20T06:45:00.000Z,9.6
2023-10-20T06:49:55.000Z,9.3
2023-10-20T06:59:45.000Z,8.6
2023-10-20T07:04:38.000Z,9
2023-10-20T07:09:33.000Z,8.9
2023-10-20T07:14:28.000Z,8.8
2023-10-20T07:19:22.000Z,9.3
2023-10-20T07:24:16.000Z,9.5
2023-10-20T07:29:11.000Z,8.9
2023-10-20T07:34:06.000Z,9.4
2023-10-20T07:39:01.000Z,9.6
2023-10-20T07:43:53.000Z,9
2023-10-20T07:48:48.000Z,7.7
2023-10-20T07:53:43.000Z,7.9
2023-10-20T07:58:38.000Z,8.1
2023-10-20T08:03:32.000Z,7.5
2023-10-20T08:08:28.000Z,7.3
2023-10-20T08:13:22.000Z,7.8
2023-10-20T08:18:16.000Z,8
2023-10-20T08:23:11.000Z,8.5
2023-10-20T08:28:06.000Z,8.7
2023-10-20T08:33:01.000Z,8.4
2023-10-20T08:37:55.000Z,8.8
2023-10-20T08:42:50.000Z,9
2023-10-20T08:47:44.000Z,8
2023-10-20T08:52:39.000Z,7.5
2023-10-20T08:57:33.000Z,7.4
2023-10-20T09:02:28.000Z,8.2
2023-10-20T09:07:23.000Z,7.7
2023-10-20T09:12:17.000Z,8
2023-10-20T09:17:11.000Z,6.9
2023-10-20T09:22:06.000Z,6
2023-10-20T09:27:01.000Z,5.4
2023-10-20T09:31:56.000Z,5.3
2023-10-20T09:36:50.000Z,5.8
2023-10-20T09:41:45.000Z,5.8
2023-10-20T09:46:39.000Z,6.5
2023-10-20T09:51:33.000Z,6.4
2023-10-20T09:56:28.000Z,5.5
2023-10-20T10:01:22.000Z,6.2
2023-10-20T10:06:16.000Z,6.5
2023-10-20T10:11:11.000Z,7.6
2023-10-20T10:16:05.000Z,7.9
2023-10-20T10:20:59.000Z,8.2
2023-10-20T10:25:54.000Z,8.1
2023-10-20T10:30:48.000Z,8.8
2023-10-20T10:35:42.000Z,8.5
2023-10-20T10:40:37.000Z,7.9
2023-10-20T10:45:32.000Z,7.6
2023-10-20T10:50:27.000Z,7.2
2023-10-20T10:55:21.000Z,6.8
2023-10-20T11:00:15.000Z,7
2023-10-20T11:05:10.000Z,6.7
2023-10-20T11:10:05.000Z,6.5
2023-10-20T11:14:59.000Z,6.4
2023-10-20T11:19:55.000Z,6.1
2023-10-20T11:24:49.000Z,8.2
2023-10-20T11:29:44.000Z,6.9
2023-10-20T11:34:39.000Z,6.7
2023-10-20T11:39:33.000Z,6.2
2023-10-20T11:44:29.000Z,12.2
2023-10-20T11:49:23.000Z,5.9
2023-10-20T11:54:17.000Z,6.6
2023-10-20T11:59:14.000Z,6.1
2023-10-20T12:04:04.000Z,6.9
2023-10-20T12:08:59.000Z,6.8
2023-10-20T12:13:53.000Z,5.9
2023-10-20T12:18:48.000Z,6
2023-10-20T12:23:43.000Z,5.2
2023-10-20T12:28:37.000Z,5.3
2023-10-20T12:33:29.000Z,4.7
2023-10-20T12:38:23.000Z,5.7
2023-10-20T12:43:18.000Z,6
2023-10-20T12:48:10.000Z,5.4
2023-10-20T12:53:04.000Z,5.3
2023-10-20T12:57:59.000Z,5.2
2023-10-20T13:02:54.000Z,5.4
2023-10-20T13:07:48.000Z,5
2023-10-20T13:12:43.000Z,5.1
2023-10-20T13:17:38.000Z,5
2023-10-20T13:22:32.000Z,4.8
2023-10-20T13:27:26.000Z,3.6
2023-10-20T13:32:18.000Z,3.8
2023-10-20T13:37:13.000Z,3.5
2023-10-20T13:42:08.000Z,3.1
2023-10-20T13:47:01.000Z,2.9
2023-10-20T13:51:55.000Z,2.8
2023-10-20T13:56:49.000Z,2.8
2023-10-20T14:01:44.000Z,2.4
2023-10-20T14:06:39.000Z,1.9
2023-10-20T14:11:33.000Z,1.5
2023-10-20T14:16:28.000Z,0.7
2023-10-20T14:21:23.000Z,0.6
2023-10-20T14:26:17.000Z,0.4
2023-10-20T14:31:12.000Z,0.3
2023-10-20T14:36:06.000Z,0.2
2023-10-20T14:41:00.000Z,0.2
2023-10-20T14:45:55.000Z,0.1
2023-10-20T14:50:49.000Z,0.2
2023-10-20T14:55:44.000Z,0.2
2023-10-20T15:00:39.000Z,0.1
2023-10-20T15:05:31.000Z,0.2
2023-10-20T15:10:28.000Z,0.2
2023-10-20T15:15:21.000Z,0.2
2023-10-20T15:20:15.000Z,0.2
2023-10-20T15:25:09.000Z,0.2
2023-10-20T15:30:04.000Z,0.3
2023-10-20T15:34:58.000Z,0.2
2023-10-20T15:39:53.000Z,0.2
2023-10-20T15:44:45.000Z,0.2
2023-10-20T15:49:40.000Z,0.2
2023-10-20T15:54:34.000Z,0.3
2023-10-20T15:59:29.000Z,0.4
2023-10-20T16:04:23.000Z,0.6
2023-10-20T16:09:17.000Z,0.3
2023-10-20T16:14:11.000Z,0.3
2023-10-20T16:19:06.000Z,0.3
2023-10-20T16:24:01.000Z,0.4
2023-10-20T16:28:55.000Z,0.3
2023-10-20T16:33:49.000Z,0.3
2023-10-20T16:38:46.000Z,0.5
2023-10-20T16:43:39.000Z,0.5
2023-10-20T16:48:33.000Z,0.4
2023-10-20T16:53:27.000Z,0.6
2023-10-20T16:58:22.000Z,0.6
2023-10-20T17:03:16.000Z,0.8
2023-10-20T17:08:11.000Z,0.6
2023-10-20T17:13:06.000Z,0.6
2023-10-20T17:18:01.000Z,0.5
2023-10-20T17:22:55.000Z,0.4
2023-10-20T17:27:48.000Z,0.5
2023-10-20T17:32:42.000Z,0.5
2023-10-20T17:37:36.000Z,0.6
2023-10-20T17:42:30.000Z,0.5
2023-10-20T17:47:24.000Z,0.6
2023-10-20T17:52:17.000Z,0.6
2023-10-20T17:57:12.000Z,0.6
2023-10-20T18:02:07.000Z,0.6
2023-10-20T18:07:01.000Z,0.7
2023-10-20T18:11:56.000Z,0.6
2023-10-20T18:16:48.000Z,0.8
2023-10-20T18:21:42.000Z,0.7
2023-10-20T18:26:37.000Z,1
2023-10-20T18:31:31.000Z,0.7
2023-10-20T18:36:25.000Z,0.7
2023-10-20T18:41:19.000Z,0.6
2023-10-20T18:46:14.000Z,1.4
2023-10-20T18:51:08.000Z,2.1
2023-10-20T18:56:03.000Z,2.5
2023-10-20T19:00:56.000Z,2.2
2023-10-20T19:05:51.000Z,2
2023-10-20T19:10:45.000Z,1.7
2023-10-20T19:15:39.000Z,1.9
2023-10-20T19:20:34.000Z,2.1
2023-10-20T19:25:28.000Z,2.7
2023-10-20T19:30:22.000Z,2.9
2023-10-20T19:35:15.000Z,2.9
2023-10-20T19:40:10.000Z,2.4
2023-10-20T19:45:04.000Z,1.8
2023-10-20T19:49:58.000Z,1.6
2023-10-20T19:54:55.000Z,1.9
2023-10-20T19:59:47.000Z,1.9
2023-10-20T20:04:42.000Z,1.7
2023-10-20T20:09:36.000Z,1.9
2023-10-20T20:14:31.000Z,1.9
2023-10-20T20:19:25.000Z,1.9
2023-10-20T20:24:18.000Z,1.8
2023-10-20T20:29:12.000Z,1.7
2023-10-20T20:34:06.000Z,1.6
2023-10-20T20:39:01.000Z,1.4
2023-10-20T20:43:55.000Z,1.6
2023-10-20T20:48:49.000Z,1.7
2023-10-20T20:53:44.000Z,1.2
2023-10-20T20:58:37.000Z,1.6
2023-10-20T21:03:31.000Z,1.2
2023-10-20T21:08:25.000Z,1.4
2023-10-20T21:13:20.000Z,1.2
2023-10-20T21:18:14.000Z,1.8
2023-10-20T21:23:09.000Z,1.6
2023-10-20T21:28:03.000Z,1.1
2023-10-20T21:32:57.000Z,0.9
2023-10-20T21:37:52.000Z,0.8
2023-10-20T21:42:46.000Z,0.8
2023-10-20T21:47:41.000Z,0.9
2023-10-20T21:52:35.000Z,0.7
2023-10-20T21:57:30.000Z,0.7
2023-10-20T22:02:25.000Z,0.7
2023-10-20T22:07:19.000Z,0.6
2023-10-20T22:12:13.000Z,0.7
2023-10-20T22:17:08.000Z,0.9
2023-10-20T22:22:02.000Z,0.7
2023-10-20T22:26:55.000Z,0.6
2023-10-20T22:31:50.000Z,0.7
2023-10-20T22:36:45.000Z,0.7
2023-10-20T22:41:39.000Z,0.9
2023-10-20T22:46:33.000Z,0.8
2023-10-20T22:51:27.000Z,0.9
2023-10-20T22:56:21.000Z,1
2023-10-20T23:01:16.000Z,1.1
2023-10-20T23:06:10.000Z,1
2023-10-20T23:11:04.000Z,1
2023-10-20T23:15:57.000Z,0.9
2023-10-20T23:20:52.000Z,1.3
2023-10-20T23:25:47.000Z,1.1
2023-10-20T23:30:41.000Z,1
2023-10-20T23:35:35.000Z,1.1
2023-10-20T23:40:30.000Z,1.2
2023-10-20T23:45:24.000Z,1.1
2023-10-20T23:50:16.000Z,1.3
2023-10-20T23:55:10.000Z,1.2
